createdAt,value
2023-01-29T00:02:44.765Z,-1.87
2023-01-29T00:07:49.429Z,-1.96
2023-01-29T00:12:54.146Z,-1.91
2023-01-29T00:18:00.141Z,-1.93
2023-01-29T00:23:04.406Z,-1.96
2023-01-29T00:28:08.881Z,-1.89
2023-01-29T00:33:14.436Z,-2.02
2023-01-29T00:38:18.571Z,-1.95
2023-01-29T00:43:41.382Z,-1.91
2023-01-29T00:48:47.229Z,-2.02
2023-01-29T00:53:52.189Z,-2.20
2023-01-29T00:58:57.040Z,-2.15
2023-01-29T01:04:02.617Z,-2.20
2023-01-29T01:09:25.193Z,-2.12
2023-01-29T01:14:29.473Z,-2.23
2023-01-29T01:19:36.910Z,-2.27
2023-01-29T01:24:41.388Z,-2.18
2023-01-29T01:29:46.536Z,-2.21
2023-01-29T01:34:54.008Z,-2.22
2023-01-29T01:39:58.864Z,-2.13
2023-01-29T01:45:08.082Z,-2.19
2023-01-29T01:50:18.291Z,-2.34
2023-01-29T01:55:27.713Z,-2.34
2023-01-29T02:00:32.262Z,-2.43
2023-01-29T02:05:56.271Z,-2.43
2023-01-29T02:11:01.138Z,-2.43
2023-01-29T02:16:06.179Z,-2.37
2023-01-29T02:21:51.717Z,-2.40
2023-01-29T02:27:08.694Z,-2.32
2023-01-29T02:32:31.653Z,-2.23
2023-01-29T02:37:43.755Z,-2.24
2023-01-29T02:42:54.583Z,-2.31
2023-01-29T02:48:03.494Z,-2.37
2023-01-29T02:53:15.971Z,-2.38
2023-01-29T02:58:30.639Z,-2.33
2023-01-29T03:03:41.716Z,-2.33
2023-01-29T03:08:55.683Z,-2.26
2023-01-29T03:14:05.572Z,-2.18
2023-01-29T03:19:17.812Z,-2.15
2023-01-29T03:24:49.478Z,-2.16
2023-01-29T03:30:15.081Z,-1.94
2023-01-29T03:35:39.802Z,-1.89
2023-01-29T03:40:52.340Z,-2.03
2023-01-29T03:46:08.408Z,-1.95
2023-01-29T03:51:28.623Z,-1.92
2023-01-29T03:56:45.804Z,-1.95
2023-01-29T04:01:55.832Z,-1.96
2023-01-29T04:07:12.162Z,-2.09
2023-01-29T04:12:21.484Z,-1.92
2023-01-29T04:17:33.033Z,-1.97
2023-01-29T04:22:52.241Z,-2.03
2023-01-29T04:28:06.656Z,-2.12
2023-01-29T04:33:26.724Z,-2.13
2023-01-29T04:38:47.278Z,-2.19
2023-01-29T04:44:01.489Z,-2.18
2023-01-29T04:49:19.582Z,-2.23
2023-01-29T04:54:40.197Z,-2.20
2023-01-29T04:59:51.841Z,-2.19
2023-01-29T05:04:57.187Z,-2.27
2023-01-29T05:10:03.638Z,-2.24
2023-01-29T05:15:15.635Z,-2.21
2023-01-29T05:20:19.998Z,-2.18
2023-01-29T05:25:27.242Z,-2.19
2023-01-29T05:30:32.176Z,-2.04
2023-01-29T05:35:36.659Z,-2.10
2023-01-29T05:40:42.960Z,-2.17
2023-01-29T05:45:54.879Z,-2.15
2023-01-29T05:51:01.838Z,-2.05
2023-01-29T05:56:08.229Z,-2.15
2023-01-29T06:01:15.216Z,-2.11
2023-01-29T06:06:19.937Z,-2.05
2023-01-29T06:11:26.033Z,-2.13
2023-01-29T06:16:30.790Z,-2.10
2023-01-29T06:21:35.244Z,-2.05
2023-01-29T06:26:40.926Z,-2.01
2023-01-29T06:31:45.626Z,-2.14
2023-01-29T06:36:50.187Z,-2.17
2023-01-29T06:41:55.962Z,-2.16
2023-01-29T06:47:00.424Z,-2.20
2023-01-29T06:52:04.997Z,-2.30
2023-01-29T06:57:10.558Z,-2.31
2023-01-29T07:02:15.707Z,-2.26
2023-01-29T07:07:20.722Z,-2.16
2023-01-29T07:12:26.613Z,-2.21
2023-01-29T07:17:30.803Z,-2.27
2023-01-29T07:22:34.971Z,-2.26
2023-01-29T07:27:40.739Z,-2.25
2023-01-29T07:32:45.697Z,-2.35
2023-01-29T07:37:51.356Z,-2.25
2023-01-29T07:43:01.318Z,-2.21
2023-01-29T07:48:07.456Z,-2.04
2023-01-29T07:53:15.319Z,-2.07
2023-01-29T07:58:21.320Z,-2.00
2023-01-29T08:03:25.785Z,-1.94
2023-01-29T08:08:30.332Z,-1.90
2023-01-29T08:13:36.110Z,-1.83
2023-01-29T08:18:44.229Z,-1.73
2023-01-29T08:23:48.513Z,-1.69
2023-01-29T08:28:54.402Z,-1.66
2023-01-29T08:33:59.764Z,-1.49
2023-01-29T08:39:04.724Z,-1.37
2023-01-29T08:44:11.215Z,-1.40
2023-01-29T08:49:15.659Z,-1.51
2023-01-29T08:54:20.111Z,-1.35
2023-01-29T08:59:25.760Z,-1.21
2023-01-29T09:04:30.150Z,-1.39
2023-01-29T09:09:35.030Z,-1.30
2023-01-29T09:14:40.983Z,-1.32
2023-01-29T09:19:45.446Z,-1.34
2023-01-29T09:24:49.685Z,-0.85
2023-01-29T09:29:55.341Z,-0.75
2023-01-29T09:35:00.504Z,-0.82
2023-01-29T09:40:05.335Z,-0.33
2023-01-29T09:45:17.841Z,-0.43
2023-01-29T09:50:29.688Z,-0.22
2023-01-29T09:55:38.516Z,-0.30
2023-01-29T10:00:52.191Z,-0.26
2023-01-29T10:06:38.414Z,-0.13
2023-01-29T10:11:58.276Z,0.12
2023-01-29T10:17:25.717Z,-0.27
2023-01-29T10:23:02.878Z,-0.22
2023-01-29T10:28:19.876Z,-0.33
2023-01-29T10:33:49.036Z,-0.54
2023-01-29T10:39:00.214Z,-0.31
2023-01-29T10:44:20.927Z,-0.01
2023-01-29T10:49:50.538Z,0.05
2023-01-29T10:55:10.334Z,0.23
2023-01-29T11:00:21.857Z,0.10
2023-01-29T11:05:35.554Z,0.17
2023-01-29T11:10:50.424Z,0.19
2023-01-29T11:15:55.568Z,0.74
2023-01-29T11:21:06.848Z,0.67
2023-01-29T11:26:15.096Z,0.94
2023-01-29T11:31:24.457Z,0.95
2023-01-29T11:36:37.093Z,1.04
2023-01-29T11:41:48.539Z,1.00
2023-01-29T11:46:53.036Z,0.93
2023-01-29T11:52:03.095Z,0.99
2023-01-29T11:57:27.475Z,1.16
2023-01-29T12:02:37.246Z,0.93
2023-01-29T12:07:45.547Z,0.75
2023-01-29T12:12:49.925Z,0.67
2023-01-29T12:18:02.452Z,0.60
2023-01-29T12:23:29.481Z,0.30
2023-01-29T12:28:47.974Z,0.32
2023-01-29T12:33:59.673Z,0.42
2023-01-29T12:39:06.362Z,0.52
2023-01-29T12:44:19.529Z,0.73
2023-01-29T12:49:29.153Z,0.63
2023-01-29T12:54:41.440Z,0.65
2023-01-29T12:59:51.234Z,0.63
2023-01-29T13:05:03.757Z,0.58
2023-01-29T13:10:16.917Z,0.45
2023-01-29T13:15:30.226Z,0.49
2023-01-29T13:20:36.374Z,0.56
2023-01-29T13:25:42.454Z,0.63
2023-01-29T13:30:47.011Z,0.69
2023-01-29T13:36:00.736Z,0.68
2023-01-29T13:41:09.017Z,0.49
2023-01-29T13:46:18.433Z,0.28
2023-01-29T13:51:30.727Z,0.47
2023-01-29T13:56:59.271Z,0.25
2023-01-29T14:02:23.651Z,0.08
2023-01-29T14:07:50.998Z,0.18
2023-01-29T14:13:35.380Z,0.06
2023-01-29T14:18:48.571Z,0.08
2023-01-29T14:23:55.805Z,0.18
2023-01-29T14:29:32.589Z,0.18
2023-01-29T14:34:47.638Z,0.07
2023-01-29T14:39:54.375Z,0.12
2023-01-29T14:45:23.385Z,0.00
2023-01-29T14:50:54.881Z,-0.11
2023-01-29T14:56:04.130Z,-0.11
2023-01-29T15:01:22.668Z,-0.14
2023-01-29T15:06:36.670Z,-0.15
2023-01-29T15:11:51.167Z,-0.21
2023-01-29T15:17:17.205Z,-0.28
2023-01-29T15:22:25.023Z,-0.22
2023-01-29T15:27:30.893Z,-0.43
2023-01-29T15:32:40.144Z,-0.40
2023-01-29T15:37:44.396Z,-0.44
2023-01-29T15:42:49.595Z,-0.46
2023-01-29T15:47:59.596Z,-0.46
2023-01-29T15:53:11.127Z,-0.55
2023-01-29T15:58:20.410Z,-0.65
2023-01-29T16:03:28.431Z,-0.66
2023-01-29T16:08:34.263Z,-0.62
2023-01-29T16:13:43.265Z,-0.75
2023-01-29T16:19:01.117Z,-0.68
2023-01-29T16:24:12.085Z,-0.62
2023-01-29T16:29:21.572Z,-0.67
2023-01-29T16:34:31.926Z,-0.72
2023-01-29T16:39:44.414Z,-0.80
2023-01-29T16:44:54.801Z,-0.68
2023-01-29T16:50:03.118Z,-0.81
2023-01-29T16:55:23.116Z,-0.80
2023-01-29T17:00:31.887Z,-0.76
2023-01-29T17:05:39.268Z,-0.82
2023-01-29T17:10:49.562Z,-0.84
2023-01-29T17:15:54.056Z,-0.84
2023-01-29T17:20:59.895Z,-0.80
2023-01-29T17:26:06.919Z,-0.97
2023-01-29T17:31:12.823Z,-0.88
2023-01-29T17:36:19.600Z,-0.87
2023-01-29T17:41:29.397Z,-0.90
2023-01-29T17:46:34.177Z,-0.78
2023-01-29T17:51:40.330Z,-0.74
2023-01-29T17:56:44.517Z,-0.78
2023-01-29T18:01:49.349Z,-0.85
2023-01-29T18:06:57.520Z,-0.83
2023-01-29T18:12:01.911Z,-0.76
2023-01-29T18:17:06.184Z,-0.78
2023-01-29T18:22:13.979Z,-0.87
2023-01-29T18:27:18.393Z,-1.02
2023-01-29T18:32:23.157Z,-0.98
2023-01-29T18:37:29.549Z,-0.99
2023-01-29T18:42:36.142Z,-0.91
2023-01-29T18:47:41.185Z,-0.93
2023-01-29T18:52:47.671Z,-0.96
2023-01-29T18:58:26.011Z,-0.98
2023-01-29T19:03:19.386Z,-0.99
2023-01-29T19:08:25.189Z,-1.12
2023-01-29T19:13:29.880Z,-1.13
2023-01-29T19:18:34.549Z,-1.13
2023-01-29T19:23:40.206Z,-1.17
2023-01-29T19:28:44.942Z,-1.15
2023-01-29T19:33:50.191Z,-1.32
2023-01-29T19:38:56.044Z,-1.22
2023-01-29T19:44:00.483Z,-1.27
2023-01-29T19:49:06.669Z,-1.24
2023-01-29T19:54:12.543Z,-1.28
2023-01-29T19:59:17.183Z,-1.26
2023-01-29T20:04:21.802Z,-1.31
2023-01-29T20:09:29.560Z,-1.27
2023-01-29T20:14:34.191Z,-1.31
2023-01-29T20:19:38.955Z,-1.29
2023-01-29T20:24:44.509Z,-1.25
2023-01-29T20:29:48.922Z,-1.21
2023-01-29T20:34:53.746Z,-1.14
2023-01-29T20:39:59.542Z,-1.17
2023-01-29T20:45:04.383Z,-1.19
2023-01-29T20:50:10.312Z,-1.19
2023-01-29T20:55:16.202Z,-1.12
2023-01-29T21:00:21.601Z,-1.08
2023-01-29T21:05:26.167Z,-1.08
2023-01-29T21:10:31.792Z,-1.11
2023-01-29T21:15:36.367Z,-1.06
2023-01-29T21:20:40.864Z,-1.09
2023-01-29T21:25:47.153Z,-0.95
2023-01-29T21:30:51.684Z,-0.91
2023-01-29T21:35:59.669Z,-0.98
2023-01-29T21:41:09.011Z,-1.04
2023-01-29T21:46:13.951Z,-0.96
2023-01-29T21:51:18.974Z,-0.88
2023-01-29T21:56:24.840Z,-0.95
2023-01-29T22:01:38.180Z,-0.88
2023-01-29T22:06:43.364Z,-0.94
2023-01-29T22:11:49.166Z,-0.95
2023-01-29T22:16:53.449Z,-0.94
2023-01-29T22:21:57.814Z,-0.94
2023-01-29T22:27:03.323Z,-0.99
2023-01-29T22:32:08.698Z,-0.99
2023-01-29T22:37:13.240Z,-0.96
2023-01-29T22:42:19.658Z,-0.96
2023-01-29T22:47:24.052Z,-0.98
2023-01-29T22:52:38.302Z,-0.96
2023-01-29T22:57:44.389Z,-0.92
2023-01-29T23:02:49.113Z,-0.85
2023-01-29T23:07:53.131Z,-0.98
2023-01-29T23:12:58.871Z,-1.05
2023-01-29T23:18:03.616Z,-1.05
2023-01-29T23:23:08.035Z,-1.05
2023-01-29T23:28:14.033Z,-1.07
2023-01-29T23:33:18.472Z,-0.96
2023-01-29T23:38:23.283Z,-1.01
2023-01-29T23:43:29.951Z,-0.99
2023-01-29T23:48:34.545Z,-0.96
2023-01-29T23:53:38.801Z,-1.08
2023-01-29T23:58:45.279Z,-1.07
